< < Back
Terminal Aerodrome Forecast


Current Version              Previous Versions:   1  2  3  4  5  6  7  8  9  

Terminal Aerodrome Forecast

278
FTUS42 KTAE 271738
TAFTLH
TAF
KTLH 271738Z 2718/2818 10007KT P6SM SCT050
     FM280100 10003KT P6SM FEW200
     FM281500 08007KT P6SM SCT040 SCT250=



Latest METAR

745
SAUS80 KWBC 272300 RRG
MTRTLH
METAR KTLH 272353Z 14004KT 10SM FEW070 FEW250 29/17 A2997 RMK AO2 SLP147
T02940167 10328 20294 55003


USA.gov is the U.S. government's official web portal to all federal, state and local government web resources and services.